Time;durP1;ratioP1;P1;durP2;ratioP2;P2;SDS_P1;SDS_P2;PMS_P1;PMS_P2;Temp;Humidity;BMP_temperature;BMP_pressure;BME280_temperature;BME280_humidity;BME280_pressure;Samples;Min_cycle;Max_cycle;Signal;HPM_P1;HPM_P2
2022/07/20 00:01:37;;;;;;;1.20;1.10;;;;;;;20.46;56.59;98777.63;5004834;28;20183;-69
2022/07/20 00:04:03;;;;;;;1.50;1.40;;;;;;;20.26;57.23;98783.28;4997751;28;20473;-71
2022/07/20 00:06:28;;;;;;;1.67;1.27;;;;;;;20.31;57.23;98778.38;5000166;28;20639;-70
2022/07/20 00:11:38;;;;;;;2.45;1.17;;;;;;;20.35;57.11;98782.34;5002052;28;20210;-70
2022/07/20 00:14:04;;;;;;;3.90;1.10;;;;;;;20.31;57.01;98786.25;4996567;28;20570;-70
2022/07/20 00:16:31;;;;;;;2.35;1.40;;;;;;;20.36;56.91;98794.50;5001188;28;20221;-70
2022/07/20 00:18:57;;;;;;;1.40;1.30;;;;;;;20.34;57.04;98796.47;4999228;28;20182;-70
2022/07/20 00:21:23;;;;;;;2.65;1.30;;;;;;;20.27;56.93;98801.53;5001357;28;20679;-70
2022/07/20 00:23:50;;;;;;;2.40;1.20;;;;;;;20.13;57.09;98803.91;5006327;28;20190;-69
2022/07/20 00:26:15;;;;;;;1.70;1.13;;;;;;;20.13;57.28;98811.78;4999697;28;20222;-69
2022/07/20 00:28:41;;;;;;;3.67;1.40;;;;;;;19.97;57.86;98820.34;5000891;28;20744;-69
2022/07/20 00:31:06;;;;;;;1.23;1.23;;;;;;;19.84;58.45;98813.84;4999418;28;20187;-70
2022/07/20 00:33:33;;;;;;;3.38;1.50;;;;;;;19.69;58.56;98808.31;4996136;28;20289;-70
2022/07/20 00:35:59;;;;;;;2.08;1.20;;;;;;;19.71;58.89;98811.59;4995888;28;20203;-70
2022/07/20 00:38:24;;;;;;;1.92;1.30;;;;;;;19.70;59.14;98817.03;4996028;28;20844;-70
2022/07/20 00:40:50;;;;;;;1.77;1.15;;;;;;;19.71;59.01;98818.69;4999254;28;20185;-70
2022/07/20 00:43:15;;;;;;;1.05;1.05;;;;;;;19.82;58.89;98815.81;5003345;28;20194;-69
2022/07/20 00:45:41;;;;;;;1.05;1.05;;;;;;;19.74;58.79;98808.69;5002262;28;20182;-70
2022/07/20 00:48:07;;;;;;;1.40;1.30;;;;;;;19.80;59.07;98825.63;4996645;28;20217;-70
2022/07/20 00:50:33;;;;;;;1.55;1.40;;;;;;;19.79;59.29;98826.59;4995692;28;20186;-70
2022/07/20 00:53:00;;;;;;;1.90;1.73;;;;;;;19.79;59.30;98831.88;4993807;28;20679;-70
2022/07/20 00:55:25;;;;;;;1.38;1.27;;;;;;;19.60;59.69;98805.78;5002765;28;20630;-70
2022/07/20 00:57:51;;;;;;;2.38;1.38;;;;;;;19.60;59.91;98811.88;5002960;28;20189;-69
2022/07/20 01:00:16;;;;;;;1.63;1.42;;;;;;;19.46;60.46;98817.63;4996400;28;20530;-69
2022/07/20 01:02:42;;;;;;;1.75;1.40;;;;;;;19.53;60.04;98810.81;4999534;28;20236;-71
2022/07/20 01:05:15;;;;;;;1.52;1.42;;;;;;;19.56;60.10;98817.56;4996367;28;20183;-70
2022/07/20 01:07:45;;;;;;;2.38;1.40;;;;;;;19.55;60.04;98813.28;5001985;28;20178;-69
2022/07/20 01:10:13;;;;;;;1.27;1.17;;;;;;;19.41;60.74;98819.06;5002160;28;20174;-69
2022/07/20 01:12:42;;;;;;;1.25;1.23;;;;;;;19.40;60.43;98820.88;5017068;28;20573;-69
2022/07/20 01:15:08;;;;;;;1.60;1.50;;;;;;;19.25;60.92;98811.88;5000678;28;20189;-70
2022/07/20 01:17:33;;;;;;;1.10;1.10;;;;;;;19.12;61.62;98818.44;5001015;28;20186;-69
2022/07/20 01:19:59;;;;;;;1.25;1.20;;;;;;;19.13;61.61;98810.38;4996901;28;20194;-68
2022/07/20 01:22:24;;;;;;;1.40;1.30;;;;;;;18.53;61.85;98715.84;4998334;28;20186;-70
2022/07/20 01:24:50;;;;;;;1.27;1.15;;;;;;;19.01;62.44;98808.16;5002600;28;20663;-69
2022/07/20 01:27:15;;;;;;;2.60;1.40;;;;;;;19.04;62.22;98813.06;5001801;28;20190;-69
2022/07/20 01:29:41;;;;;;;3.47;1.58;;;;;;;18.93;62.72;98808.03;5004489;28;20189;-71
2022/07/20 01:32:06;;;;;;;4.57;1.45;;;;;;;18.95;62.59;98809.53;5003117;28;20660;-69
2022/07/20 01:34:32;;;;;;;1.25;1.25;;;;;;;18.97;62.78;98817.28;4994561;28;20183;-69
2022/07/20 01:36:57;;;;;;;3.15;1.33;;;;;;;19.03;62.75;98809.66;4995697;28;20283;-69
2022/07/20 01:39:23;;;;;;;1.50;1.20;;;;;;;18.93;62.47;98805.41;4992746;28;20186;-68
2022/07/20 01:41:52;;;;;;;1.73;1.38;;;;;;;18.92;62.91;98809.84;4996601;28;20191;-70
2022/07/20 01:44:21;;;;;;;1.38;1.30;;;;;;;18.77;63.35;98805.25;4998651;28;20715;-69
2022/07/20 01:46:48;;;;;;;2.22;1.55;;;;;;;18.85;63.27;98800.09;4996229;28;20183;-70
2022/07/20 01:49:13;;;;;;;2.03;1.35;;;;;;;18.91;63.29;98810.00;4993506;28;20206;-69
2022/07/20 01:51:39;;;;;;;6.03;1.27;;;;;;;18.37;62.88;98718.28;4997954;28;20183;-70
2022/07/20 01:54:04;;;;;;;1.40;1.30;;;;;;;18.85;63.58;98810.59;5007513;28;20186;-70
2022/07/20 01:56:30;;;;;;;2.67;1.33;;;;;;;18.85;63.34;98803.56;5002493;28;20198;-69
2022/07/20 01:58:55;;;;;;;1.60;1.50;;;;;;;18.69;63.44;98794.66;4997106;28;20182;-69
2022/07/20 02:01:21;;;;;;;3.08;1.38;;;;;;;18.80;63.24;98810.19;4996241;28;20630;-69
2022/07/20 02:03:46;;;;;;;1.30;1.20;;;;;;;18.76;63.84;98811.47;4995316;28;20178;-69
2022/07/20 02:06:11;;;;;;;1.73;1.52;;;;;;;18.80;63.97;98811.03;4998051;28;20498;-69
2022/07/20 02:08:37;;;;;;;1.38;1.30;;;;;;;18.86;63.42;98807.81;4998747;28;20213;-69
2022/07/20 02:11:03;;;;;;;1.70;1.60;;;;;;;18.98;63.27;98813.66;5007267;28;20659;-69
2022/07/20 02:13:28;;;;;;;2.03;1.40;;;;;;;18.97;63.54;98814.66;5001540;28;20194;-70
2022/07/20 02:18:38;;;;;;;1.58;1.50;;;;;;;18.81;64.76;98807.44;4996205;28;20263;-69
2022/07/20 02:21:03;;;;;;;1.48;1.17;;;;;;;18.95;63.44;98809.53;4996556;28;20652;-69
2022/07/20 02:23:29;;;;;;;2.85;1.48;;;;;;;18.91;63.09;98810.00;4985510;28;20198;-70
2022/07/20 02:25:54;;;;;;;3.00;1.67;;;;;;;18.96;62.85;98805.97;4997114;28;20528;-69
2022/07/20 02:28:19;;;;;;;1.70;1.40;;;;;;;18.95;62.90;98798.25;5003313;28;20185;-69
2022/07/20 02:30:45;;;;;;;2.20;1.70;;;;;;;19.09;62.85;98813.47;4993257;28;20747;-69
2022/07/20 02:33:10;;;;;;;2.03;1.27;;;;;;;19.05;63.30;98814.75;5000186;28;20182;-69
2022/07/20 02:35:35;;;;;;;1.40;1.30;;;;;;;19.04;62.51;98802.59;4987691;28;20211;-70
2022/07/20 02:38:01;;;;;;;2.88;1.60;;;;;;;18.87;62.37;98785.03;4999534;28;20675;-69
2022/07/20 02:40:26;;;;;;;5.40;1.85;;;;;;;19.02;62.21;98807.16;4990925;28;20663;-69
2022/07/20 02:42:52;;;;;;;2.42;1.42;;;;;;;18.96;62.23;98807.75;4997189;28;20273;-69
2022/07/20 02:45:17;;;;;;;1.52;1.42;;;;;;;18.81;62.94;98801.34;4995673;28;20186;-68
2022/07/20 02:47:45;;;;;;;2.45;1.25;;;;;;;18.77;63.02;98806.06;4978288;28;20635;-69
2022/07/20 02:50:11;;;;;;;1.50;1.40;;;;;;;18.81;62.92;98796.94;4989314;28;20184;-68
2022/07/20 02:52:38;;;;;;;5.68;1.45;;;;;;;18.74;63.22;98800.28;4994980;28;20183;-68
2022/07/20 02:55:05;;;;;;;1.25;1.20;;;;;;;18.72;63.45;98807.50;4993758;28;20305;-68
2022/07/20 02:57:30;;;;;;;1.80;1.63;;;;;;;18.60;64.02;98803.41;4997244;28;20178;-68
2022/07/20 02:59:56;;;;;;;1.55;1.30;;;;;;;18.60;63.80;98788.50;4992128;28;20652;-68
2022/07/20 03:02:21;;;;;;;1.55;1.45;;;;;;;18.71;63.49;98790.13;5002986;28;20185;-68
2022/07/20 03:04:46;;;;;;;1.65;1.20;;;;;;;18.66;63.53;98787.09;4982748;28;20820;-68
2022/07/20 03:07:12;;;;;;;1.85;1.70;;;;;;;18.73;63.76;98796.03;4976869;28;20428;-68
2022/07/20 03:09:37;;;;;;;3.50;1.23;;;;;;;18.57;63.82;98767.81;4980030;28;20175;-68
2022/07/20 03:12:03;;;;;;;3.95;1.30;;;;;;;18.67;63.66;98779.09;5001951;28;20187;-69
2022/07/20 03:14:28;;;;;;;3.97;1.58;;;;;;;18.71;63.81;98784.88;4993052;28;20187;-68
2022/07/20 03:16:53;;;;;;;1.60;1.50;;;;;;;18.65;64.04;98793.31;4994038;28;20264;-69
2022/07/20 03:19:19;;;;;;;2.15;1.70;;;;;;;18.72;63.87;98789.13;4996078;28;20189;-68
2022/07/20 03:21:44;;;;;;;4.00;1.60;;;;;;;18.73;63.50;98780.28;4998780;28;20179;-68
2022/07/20 03:24:09;;;;;;;2.22;1.48;;;;;;;18.74;63.41;98774.06;4995354;28;20621;-68
2022/07/20 03:26:35;;;;;;;1.50;1.40;;;;;;;18.81;63.22;98794.31;4976286;28;21094;-68
2022/07/20 03:29:00;;;;;;;5.57;1.60;;;;;;;18.86;63.42;98793.88;4977197;28;20179;-68
2022/07/20 03:31:26;;;;;;;1.88;1.45;;;;;;;18.90;63.05;98800.47;4987358;28;20686;-68
2022/07/20 03:33:51;;;;;;;2.05;1.27;;;;;;;18.91;63.06;98791.63;4993304;28;20673;-68
2022/07/20 03:36:17;;;;;;;1.50;1.40;;;;;;;18.92;62.98;98798.53;4998643;28;20556;-68
2022/07/20 03:38:42;;;;;;;1.63;1.33;;;;;;;18.83;62.85;98776.63;4989808;28;20582;-68
2022/07/20 03:41:07;;;;;;;1.92;1.50;;;;;;;19.08;62.53;98798.69;5001989;28;20726;-69
2022/07/20 03:43:33;;;;;;;2.10;1.40;;;;;;;19.00;62.34;98796.00;4994034;28;20195;-69
2022/07/20 03:45:58;;;;;;;2.35;1.40;;;;;;;19.04;62.72;98806.03;4991026;28;20175;-69
2022/07/20 03:48:24;;;;;;;2.92;1.73;;;;;;;19.05;62.94;98805.06;4979279;28;20179;-69
2022/07/20 03:50:49;;;;;;;2.03;1.33;;;;;;;19.12;62.58;98806.13;5000186;28;20206;-68
2022/07/20 03:53:14;;;;;;;2.40;1.60;;;;;;;19.08;63.14;98811.81;5005661;28;20193;-68
2022/07/20 03:55:40;;;;;;;1.50;1.40;;;;;;;19.23;62.32;98807.75;4998651;28;20286;-69
2022/07/20 03:58:05;;;;;;;3.08;1.48;;;;;;;19.36;62.02;98809.00;5001460;28;20204;-68
2022/07/20 04:00:31;;;;;;;3.35;1.50;;;;;;;19.59;61.19;98809.41;4998403;28;20690;-68
2022/07/20 04:02:57;;;;;;;1.45;1.35;;;;;;;19.68;60.67;98808.47;4999580;28;20723;-68
2022/07/20 04:05:22;;;;;;;4.88;1.50;;;;;;;19.79;59.94;98813.47;5004729;28;20233;-70
2022/07/20 04:07:48;;;;;;;3.03;1.45;;;;;;;19.85;60.06;98823.38;4998402;28;20737;-69
2022/07/20 04:10:13;;;;;;;1.35;1.35;;;;;;;19.98;59.43;98826.41;4997568;28;20428;-69
2022/07/20 04:12:39;;;;;;;3.65;1.48;;;;;;;19.98;59.50;98826.41;5001594;28;20186;-69
2022/07/20 04:15:05;;;;;;;1.95;1.40;;;;;;;20.04;59.41;98823.22;4997021;28;20238;-70
2022/07/20 04:17:30;;;;;;;1.63;1.52;;;;;;;20.08;59.55;98820.13;4997231;28;20182;-70
2022/07/20 04:19:55;;;;;;;2.53;1.38;;;;;;;19.88;59.86;98817.81;4994037;28;20289;-70
2022/07/20 04:22:21;;;;;;;5.22;1.42;;;;;;;20.00;59.51;98817.41;5006787;28;20267;-69
2022/07/20 04:24:46;;;;;;;3.47;1.48;;;;;;;19.85;60.04;98815.50;4997276;28;20231;-68
2022/07/20 04:27:12;;;;;;;2.55;1.50;;;;;;;19.89;60.31;98824.72;5008274;28;20174;-69
2022/07/20 04:29:37;;;;;;;1.55;1.45;;;;;;;19.71;60.51;98824.75;4999051;28;20197;-69
2022/07/20 04:32:03;;;;;;;1.38;1.30;;;;;;;19.73;60.73;98828.06;4999363;28;20193;-68
2022/07/20 04:34:29;;;;;;;1.77;1.38;;;;;;;19.64;61.41;98821.06;5004045;28;20714;-68
2022/07/20 04:36:54;;;;;;;1.52;1.42;;;;;;;19.79;60.77;98816.09;5003418;28;20638;-68
2022/07/20 04:39:20;;;;;;;3.55;1.50;;;;;;;19.84;60.05;98819.09;4993327;28;20217;-68
2022/07/20 04:41:45;;;;;;;4.35;1.52;;;;;;;19.89;60.13;98824.72;4995122;28;20185;-68
2022/07/20 04:44:11;;;;;;;1.50;1.40;;;;;;;19.63;60.51;98824.69;4997175;28;20576;-68
2022/07/20 04:46:36;;;;;;;1.70;1.60;;;;;;;19.54;61.09;98825.59;4998931;28;20675;-68
2022/07/20 04:49:02;;;;;;;1.88;1.27;;;;;;;19.43;61.16;98804.00;5003597;28;20190;-68
2022/07/20 04:51:28;;;;;;;1.15;1.15;;;;;;;19.38;62.06;98822.00;4997560;28;20448;-68
2022/07/20 04:53:53;;;;;;;3.60;1.77;;;;;;;19.60;61.48;98818.91;4999332;28;20186;-68
2022/07/20 04:56:19;;;;;;;1.38;1.27;;;;;;;19.85;60.41;98805.00;5002045;28;20195;-68
2022/07/20 04:58:50;;;;;;;3.72;1.42;;;;;;;20.13;59.98;98830.19;4994699;28;20190;-68
2022/07/20 05:01:16;;;;;;;4.72;1.45;;;;;;;20.05;60.15;98817.78;5005733;28;20248;-68
2022/07/20 05:03:41;;;;;;;2.25;1.48;;;;;;;20.09;60.29;98831.44;4999362;28;20187;-68
2022/07/20 05:06:07;;;;;;;1.70;1.48;;;;;;;20.27;59.76;98829.59;4996838;28;20266;-68
2022/07/20 05:08:32;;;;;;;1.50;1.40;;;;;;;20.13;59.74;98835.44;4998057;28;20190;-68
2022/07/20 05:10:58;;;;;;;1.77;1.67;;;;;;;20.00;61.14;98827.91;4997775;28;20729;-68
2022/07/20 05:13:23;;;;;;;1.98;1.50;;;;;;;20.18;60.91;98827.91;4997829;28;20621;-68
2022/07/20 05:15:49;;;;;;;1.67;1.50;;;;;;;20.38;60.09;98821.44;5000491;28;20757;-68
2022/07/20 05:18:14;;;;;;;2.35;2.17;;;;;;;20.39;60.41;98838.91;4993092;28;20179;-68
2022/07/20 05:20:39;;;;;;;2.42;1.40;;;;;;;20.58;58.93;98820.25;4994482;28;20191;-68
2022/07/20 05:23:05;;;;;;;2.10;1.40;;;;;;;20.74;58.57;98833.47;4992813;28;20179;-68
2022/07/20 05:25:30;;;;;;;5.85;1.58;;;;;;;20.77;57.92;98826.09;4995099;28;20215;-68
2022/07/20 05:27:56;;;;;;;2.03;1.42;;;;;;;20.86;58.03;98829.59;4994154;28;20608;-68
2022/07/20 05:30:21;;;;;;;1.52;1.42;;;;;;;20.96;57.79;98839.00;4993571;28;20270;-68
2022/07/20 05:32:47;;;;;;;2.00;1.10;;;;;;;21.15;57.25;98835.28;4978800;28;20191;-69
2022/07/20 05:35:12;;;;;;;1.88;1.55;;;;;;;21.11;56.52;98807.63;4996650;28;20192;-68
2022/07/20 05:37:38;;;;;;;1.40;1.30;;;;;;;21.21;56.40;98819.66;5004214;28;20189;-68
2022/07/20 05:40:04;;;;;;;2.03;1.40;;;;;;;21.27;57.00;98839.28;5008364;28;20187;-68
2022/07/20 05:42:29;;;;;;;2.25;1.30;;;;;;;21.17;56.89;98838.56;4991119;28;20190;-69
2022/07/20 05:44:54;;;;;;;2.03;1.48;;;;;;;21.22;56.50;98820.50;4990072;28;20187;-68
2022/07/20 05:47:21;;;;;;;2.97;1.23;;;;;;;21.28;57.35;98840.91;4991368;28;20213;-68
2022/07/20 05:49:48;;;;;;;1.50;1.40;;;;;;;21.36;56.52;98843.53;5000853;28;20854;-68
2022/07/20 05:52:15;;;;;;;2.42;1.45;;;;;;;21.31;56.75;98845.84;4995668;28;20755;-68
2022/07/20 05:54:40;;;;;;;2.05;1.60;;;;;;;21.32;56.71;98842.25;4998463;28;20175;-68
2022/07/20 05:57:06;;;;;;;3.40;1.50;;;;;;;21.37;57.46;98834.66;4997754;28;20206;-68
2022/07/20 05:59:31;;;;;;;1.58;1.17;;;;;;;21.60;56.26;98839.16;5004211;28;20182;-68
2022/07/20 06:01:57;;;;;;;1.27;1.17;;;;;;;21.88;55.21;98851.03;4995536;28;20183;-68
2022/07/20 06:04:22;;;;;;;2.22;1.40;;;;;;;22.03;54.70;98848.56;4996111;28;20189;-68
2022/07/20 06:06:48;;;;;;;1.30;1.20;;;;;;;22.03;54.21;98854.66;5004271;28;20175;-68
2022/07/20 06:09:13;;;;;;;1.80;1.48;;;;;;;22.21;54.41;98857.09;5010544;28;20642;-68
2022/07/20 06:11:38;;;;;;;1.42;1.10;;;;;;;22.32;53.82;98848.84;5001900;28;20181;-68
2022/07/20 06:14:04;;;;;;;2.50;1.48;;;;;;;22.42;53.58;98846.84;5005129;28;20189;-68
2022/07/20 06:16:30;;;;;;;4.50;1.40;;;;;;;22.60;53.70;98852.78;5000356;28;20195;-68
2022/07/20 06:18:55;;;;;;;3.13;1.45;;;;;;;22.72;53.24;98841.66;5002204;28;20182;-69
2022/07/20 06:21:20;;;;;;;3.75;1.30;;;;;;;22.80;53.04;98844.28;4991356;28;20190;-68
2022/07/20 06:23:46;;;;;;;2.00;1.23;;;;;;;22.94;52.61;98837.44;4997663;28;20178;-69
2022/07/20 06:26:11;;;;;;;1.50;1.40;;;;;;;22.98;52.79;98847.50;4994764;28;20210;-68
2022/07/20 06:28:37;;;;;;;1.20;1.20;;;;;;;23.08;52.55;98860.50;5008480;28;20178;-68
2022/07/20 06:31:04;;;;;;;1.15;1.10;;;;;;;23.25;52.09;98859.44;5011025;28;20209;-68
2022/07/20 06:33:29;;;;;;;1.80;1.40;;;;;;;23.32;51.20;98861.19;5010519;28;20252;-68
2022/07/20 06:35:54;;;;;;;2.40;1.40;;;;;;;23.35;51.91;98844.19;5006296;28;20686;-68
2022/07/20 06:38:20;;;;;;;3.75;1.60;;;;;;;23.57;52.16;98851.31;5000938;28;20193;-69
2022/07/20 06:40:45;;;;;;;1.85;1.00;;;;;;;23.77;51.90;98865.72;5006863;28;20170;-68
2022/07/20 06:43:11;;;;;;;2.38;1.60;;;;;;;23.96;50.74;98859.97;5006115;28;20559;-69
2022/07/20 06:45:36;;;;;;;3.47;1.45;;;;;;;24.12;50.62;98865.94;5002029;28;20218;-68
2022/07/20 06:48:02;;;;;;;3.28;1.38;;;;;;;24.22;50.37;98858.56;4991289;28;20215;-68
2022/07/20 06:50:28;;;;;;;3.17;1.63;;;;;;;24.31;50.35;98860.94;5002780;28;20708;-68
2022/07/20 06:52:53;;;;;;;3.55;1.63;;;;;;;24.46;49.95;98861.81;5005375;28;20273;-70
2022/07/20 06:55:19;;;;;;;1.95;1.77;;;;;;;24.59;49.22;98862.00;4987356;28;20188;-68
2022/07/20 06:57:45;;;;;;;5.55;1.20;;;;;;;24.74;48.87;98860.16;4981270;28;20190;-69
2022/07/20 07:00:11;;;;;;;7.43;1.50;;;;;;;24.89;48.42;98858.34;4995556;28;20190;-68
2022/07/20 07:02:37;;;;;;;4.97;2.03;;;;;;;25.03;48.47;98860.16;5002709;28;20190;-69
2022/07/20 07:05:03;;;;;;;2.40;1.40;;;;;;;25.18;47.93;98860.94;5003378;28;20245;-69
2022/07/20 07:07:29;;;;;;;2.78;1.65;;;;;;;25.33;46.98;98860.94;4996201;28;20653;-69
2022/07/20 07:09:54;;;;;;;7.10;2.10;;;;;;;25.38;46.72;98859.38;4997640;28;20290;-69
2022/07/20 07:12:20;;;;;;;4.72;1.90;;;;;;;25.48;46.87;98851.94;4993909;28;20277;-69
2022/07/20 07:14:45;;;;;;;6.07;2.03;;;;;;;25.58;46.66;98855.13;4997075;28;20191;-69
2022/07/20 07:17:11;;;;;;;3.70;1.73;;;;;;;25.71;46.09;98860.53;4985318;28;20219;-69
2022/07/20 07:19:39;;;;;;;2.78;1.80;;;;;;;25.69;45.86;98825.44;4978214;28;20672;-70
2022/07/20 07:22:04;;;;;;;5.72;2.10;;;;;;;25.94;45.75;98847.94;4980799;28;20490;-69
2022/07/20 07:24:30;;;;;;;3.97;1.67;;;;;;;26.04;45.69;98852.91;4998260;28;20194;-69
2022/07/20 07:26:55;;;;;;;3.92;1.80;;;;;;;26.14;45.64;98848.09;4997693;28;20305;-69
2022/07/20 07:29:21;;;;;;;6.05;1.80;;;;;;;26.21;46.12;98849.78;5002191;28;20269;-70
2022/07/20 07:31:46;;;;;;;9.52;1.98;;;;;;;26.32;45.85;98851.91;4994270;28;20248;-69
2022/07/20 07:34:12;;;;;;;4.57;2.13;;;;;;;26.37;45.69;98841.50;5003870;28;20245;-69
2022/07/20 07:36:37;;;;;;;2.83;2.05;;;;;;;26.49;45.43;98847.13;5005770;28;20194;-70
2022/07/20 07:39:03;;;;;;;4.38;2.03;;;;;;;26.55;45.44;98847.19;5000951;28;20381;-69
2022/07/20 07:41:28;;;;;;;8.60;2.00;;;;;;;26.60;45.53;98850.06;4999136;28;20272;-70
2022/07/20 07:43:54;;;;;;;4.45;1.90;;;;;;;26.72;45.58;98845.03;5000360;28;20187;-69
2022/07/20 07:46:20;;;;;;;7.15;2.10;;;;;;;26.66;45.18;98835.19;4993560;28;20621;-69
2022/07/20 07:48:45;;;;;;;2.55;1.80;;;;;;;26.77;45.83;98846.06;4995601;28;20260;-70
2022/07/20 07:51:11;;;;;;;8.13;2.38;;;;;;;26.82;45.71;98835.69;4998956;28;20256;-69
2022/07/20 07:53:36;;;;;;;5.15;2.00;;;;;;;26.92;45.36;98838.81;5006966;28;20190;-69
2022/07/20 07:56:02;;;;;;;4.18;2.08;;;;;;;27.05;45.37;98838.06;4998210;28;20207;-70
2022/07/20 07:58:27;;;;;;;3.75;2.28;;;;;;;27.13;44.93;98840.53;4998736;28;20190;-69
2022/07/20 08:00:52;;;;;;;3.67;2.03;;;;;;;27.17;45.29;98836.50;5002066;28;20190;-69
2022/07/20 08:03:18;;;;;;;2.85;2.08;;;;;;;27.23;44.49;98847.13;4998675;28;20432;-69
2022/07/20 08:05:44;;;;;;;6.50;1.98;;;;;;;27.24;43.73;98838.13;4999088;28;20187;-70
2022/07/20 08:08:12;;;;;;;5.03;2.50;;;;;;;27.22;44.19;98834.84;5002175;28;20729;-69
2022/07/20 08:10:39;;;;;;;4.05;2.38;;;;;;;27.31;44.19;98832.84;5003628;28;20190;-69
2022/07/20 08:13:05;;;;;;;5.10;1.92;;;;;;;27.25;43.25;98823.84;4994920;28;20202;-69
2022/07/20 08:15:30;;;;;;;3.42;1.88;;;;;;;27.40;41.05;98837.78;4996182;28;20751;-69
2022/07/20 08:17:56;;;;;;;2.58;1.40;;;;;;;27.43;38.97;98834.72;4997679;28;20183;-69
2022/07/20 08:20:22;;;;;;;2.55;1.30;;;;;;;27.46;37.41;98836.16;4999385;28;20284;-69
2022/07/20 08:22:51;;;;;;;1.45;1.30;;;;;;;27.50;35.57;98835.56;4997270;28;20187;-70
2022/07/20 08:25:18;;;;;;;2.90;1.00;;;;;;;27.55;35.15;98830.44;5000475;28;20221;-70
2022/07/20 08:27:43;;;;;;;4.88;1.42;;;;;;;27.37;35.22;98838.19;5006433;28;20244;-69
2022/07/20 08:30:09;;;;;;;4.13;1.10;;;;;;;27.40;35.46;98839.63;5001876;28;20737;-69
2022/07/20 08:32:35;;;;;;;5.38;2.00;;;;;;;27.22;36.13;98834.84;4999562;28;20582;-69
2022/07/20 08:35:00;;;;;;;2.50;1.50;;;;;;;27.29;36.75;98832.22;5008641;28;20544;-69
2022/07/20 08:37:26;;;;;;;2.92;0.90;;;;;;;27.38;34.02;98839.81;5003685;28;20195;-70
2022/07/20 08:39:52;;;;;;;3.95;1.38;;;;;;;27.55;33.42;98832.28;5000647;28;20179;-69
2022/07/20 08:42:17;;;;;;;3.72;1.20;;;;;;;27.57;34.28;98823.06;4981329;28;20320;-69
2022/07/20 08:44:44;;;;;;;3.28;1.45;;;;;;;27.77;34.57;98828.41;4978993;28;20191;-69
2022/07/20 08:47:14;;;;;;;6.90;1.88;;;;;;;27.83;35.07;98828.47;5002096;28;20193;-70
2022/07/20 08:49:45;;;;;;;2.33;1.50;;;;;;;27.96;34.18;98825.81;4997361;28;20189;-70
2022/07/20 08:52:11;;;;;;;4.85;1.40;;;;;;;28.06;34.39;98826.22;4998262;28;20179;-69
2022/07/20 08:54:37;;;;;;;3.03;1.33;;;;;;;28.13;34.73;98824.38;5000890;28;20178;-70
2022/07/20 08:57:15;;;;;;;6.82;1.23;;;;;;;28.19;34.88;98818.22;5000668;28;20241;-69
2022/07/20 08:59:40;;;;;;;2.13;1.48;;;;;;;28.11;33.88;98814.94;4998093;28;20591;-70
2022/07/20 09:02:08;;;;;;;2.67;1.33;;;;;;;28.20;34.28;98817.19;5000400;28;20313;-69
2022/07/20 09:04:48;;;;;;;5.20;1.40;;;;;;;28.31;32.91;98823.72;4997674;28;20248;-70
2022/07/20 09:07:14;;;;;;;7.38;1.75;;;;;;;28.21;33.43;98826.00;4999882;28;20882;-69
2022/07/20 09:09:39;;;;;;;5.07;1.67;;;;;;;28.23;34.13;98814.09;4999170;28;20189;-69
2022/07/20 09:12:05;;;;;;;3.45;1.23;;;;;;;28.35;34.34;98812.47;5005722;28;20661;-69
2022/07/20 09:14:43;;;;;;;3.80;1.55;;;;;;;28.35;33.85;98814.31;5001502;28;20190;-70
2022/07/20 09:17:23;;;;;;;2.00;1.13;;;;;;;28.27;33.81;98811.88;4992901;28;20336;-69
2022/07/20 09:20:05;;;;;;;6.30;1.35;;;;;;;28.43;32.66;98809.63;5001718;28;20186;-69
2022/07/20 09:22:33;;;;;;;4.60;1.25;;;;;;;28.56;32.70;98814.91;4998104;28;20178;-69
2022/07/20 09:25:13;;;;;;;3.42;1.25;;;;;;;28.53;32.15;98812.66;5001904;28;20226;-69
2022/07/20 09:27:39;;;;;;;4.65;1.48;;;;;;;28.60;33.20;98800.16;5000052;28;20631;-69
2022/07/20 09:30:09;;;;;;;2.47;1.10;;;;;;;28.62;32.99;98803.41;5004705;28;20194;-69
2022/07/20 09:32:53;;;;;;;4.00;1.17;;;;;;;28.62;31.79;98795.41;5000167;28;20190;-69
2022/07/20 09:35:21;;;;;;;2.17;1.52;;;;;;;28.67;32.16;98802.75;4996614;28;20218;-69
2022/07/20 09:37:46;;;;;;;3.38;1.42;;;;;;;28.71;32.31;98799.50;5008109;28;20194;-69
2022/07/20 09:40:12;;;;;;;5.35;1.33;;;;;;;28.80;31.66;98790.22;4988449;28;20201;-69
2022/07/20 09:42:41;;;;;;;4.25;1.30;;;;;;;28.82;32.34;98792.69;5002149;28;20734;-69
2022/07/20 09:45:29;;;;;;;1.35;1.13;;;;;;;28.85;31.94;98798.41;4982873;28;20278;-69
2022/07/20 09:48:12;;;;;;;2.38;1.17;;;;;;;28.95;31.97;98798.81;4998346;28;20955;-70
2022/07/20 09:50:45;;;;;;;2.42;1.20;;;;;;;29.12;32.04;98794.63;5006363;28;20316;-69
2022/07/20 09:53:11;;;;;;;3.65;1.48;;;;;;;29.23;31.65;98785.97;5001119;28;20548;-69
2022/07/20 09:55:38;;;;;;;3.53;1.33;;;;;;;29.37;31.61;98782.16;5005321;28;20296;-69
2022/07/20 09:58:05;;;;;;;1.30;1.20;;;;;;;29.51;31.48;98789.03;4994959;28;20193;-69
2022/07/20 10:00:32;;;;;;;5.30;1.70;;;;;;;29.60;30.55;98782.44;4998428;28;20256;-70
2022/07/20 10:02:59;;;;;;;2.22;1.35;;;;;;;29.69;31.37;98786.50;4995007;28;20291;-69
2022/07/20 10:05:29;;;;;;;5.50;1.17;;;;;;;29.63;31.25;98782.03;4998990;28;20671;-69
2022/07/20 10:07:55;;;;;;;4.35;1.45;;;;;;;29.72;31.47;98775.38;4997484;28;20194;-70
2022/07/20 10:10:21;;;;;;;6.57;1.30;;;;;;;29.81;31.64;98783.94;4999076;28;20265;-70
2022/07/20 10:12:46;;;;;;;1.90;1.30;;;;;;;29.77;30.89;98778.22;5000914;28;20299;-69
2022/07/20 10:15:16;;;;;;;4.38;1.45;;;;;;;29.92;30.84;98772.56;5004063;28;20193;-69
2022/07/20 10:17:43;;;;;;;5.55;1.23;;;;;;;30.02;30.71;98760.31;4998734;28;20718;-69
2022/07/20 10:20:28;;;;;;;1.90;1.20;;;;;;;30.18;30.35;98758.97;4993647;28;20187;-69
2022/07/20 10:23:16;;;;;;;8.80;3.90;;;;;;;30.16;29.97;98761.06;5003674;28;20261;-70
2022/07/20 10:25:42;;;;;;;5.45;2.80;;;;;;;30.23;30.90;98767.13;4996684;28;20224;-70
2022/07/20 10:28:37;;;;;;;6.65;4.38;;;;;;;30.45;30.37;98755.81;4976196;28;20191;-69
2022/07/20 10:31:16;;;;;;;1.80;1.27;;;;;;;30.52;29.87;98747.72;4997252;28;20285;-70
2022/07/20 10:33:42;;;;;;;4.90;1.95;;;;;;;30.64;29.88;98754.78;5000415;28;20533;-69
2022/07/20 10:38:58;;;;;;;2.70;1.60;;;;;;;30.87;29.54;98749.56;4998909;28;20729;-69
2022/07/20 10:41:33;;;;;;;5.72;1.33;;;;;;;30.83;29.27;98743.03;5003005;28;20659;-69
2022/07/20 10:44:19;;;;;;;4.22;1.10;;;;;;;30.80;29.63;98734.66;4999660;28;20169;-70
2022/07/20 10:46:45;;;;;;;4.75;1.30;;;;;;;30.39;29.52;98730.00;5000827;28;20656;-70
2022/07/20 10:49:11;;;;;;;2.55;1.52;;;;;;;30.46;29.70;98733.41;4996884;28;20196;-70
2022/07/20 10:51:36;;;;;;;6.70;1.20;;;;;;;30.67;29.56;98732.16;5001567;28;20652;-69
2022/07/20 10:54:46;;;;;;;3.22;1.20;;;;;;;30.81;29.11;98717.56;5005624;28;20637;-70
2022/07/20 10:57:12;;;;;;;2.67;0.93;;;;;;;31.15;29.41;98724.91;4999007;28;20214;-69
2022/07/20 10:59:37;;;;;;;1.77;1.02;;;;;;;31.47;28.45;98727.13;5000808;28;20671;-69
2022/07/20 11:02:03;;;;;;;1.80;1.10;;;;;;;31.64;28.27;98720.03;4999034;28;20179;-70
2022/07/20 11:04:28;;;;;;;2.10;1.17;;;;;;;31.91;28.52;98728.47;4997668;28;20656;-70
2022/07/20 11:06:54;;;;;;;4.63;1.70;;;;;;;31.97;28.16;98722.19;5020661;28;20579;-69
2022/07/20 11:09:29;;;;;;;1.92;1.30;;;;;;;31.89;28.04;98709.94;4998233;28;20629;-70
2022/07/20 11:11:55;;;;;;;8.27;1.30;;;;;;;32.31;27.96;98716.00;4998710;28;20198;-70
2022/07/20 11:14:21;;;;;;;3.42;1.27;;;;;;;32.53;27.82;98723.16;5004421;28;20187;-70
2022/07/20 11:16:54;;;;;;;3.92;1.48;;;;;;;32.69;26.90;98724.31;4998513;28;20199;-70
2022/07/20 11:19:20;;;;;;;3.17;1.23;;;;;;;32.74;27.58;98717.16;4999603;28;20269;-70
2022/07/20 11:21:45;;;;;;;4.38;1.27;;;;;;;32.61;27.08;98714.78;5003958;28;20656;-70
2022/07/20 11:24:28;;;;;;;3.60;1.42;;;;;;;32.87;27.43;98711.53;5005128;28;20277;-70
2022/07/20 11:26:55;;;;;;;4.78;1.48;;;;;;;32.97;26.77;98717.09;5002172;28;20623;-70
2022/07/20 11:29:21;;;;;;;2.33;1.20;;;;;;;32.47;27.41;98704.56;5000499;28;20179;-69
2022/07/20 11:31:46;;;;;;;2.45;1.52;;;;;;;32.52;27.01;98708.16;4999307;28;20196;-70
2022/07/20 11:34:13;;;;;;;6.25;1.50;;;;;;;32.33;27.21;98687.94;5001183;28;20174;-70
2022/07/20 11:36:39;;;;;;;2.42;1.15;;;;;;;32.69;26.43;98700.19;5001258;28;20214;-70
2022/07/20 11:39:09;;;;;;;6.25;1.20;;;;;;;33.00;26.10;98708.56;4994232;28;20187;-70
2022/07/20 11:41:37;;;;;;;2.10;0.95;;;;;;;33.26;26.08;98693.72;5010624;28;20255;-70